Weather reports worldwide

Advertisment
Muela, Spain (8357): temperature & dewpoint: 01.08.2020 02:00:00 - 07.08.2020 02:00:00 (CEST)Muela, Spain (8357): wind speed & gusts: 01.08.2020 02:00:00 - 07.08.2020 02:00:00 (CEST)Muela, Spain (8357): wind direction: 01.08.2020 02:00:00 - 07.08.2020 02:00:00 (CEST)Muela, Spain (8357): precipitation: 01.08.2020 02:00:00 - 07.08.2020 02:00:00 (CEST)
Date & Time tt [°C] td [°C] ff [km/h] ff [kn] fx [km/h] fx [kn] dd rr [mm]
07.08.2020 02:00:00 18,3 13,2 3 1 4 2 ENE -
07.08.2020 01:00:00 19,5 13,3 1 1 5 3 NE 0,0
07.08.2020 00:00:00 20,7 14,6 4 2 9 5 ENE 0,0
06.08.2020 23:00:00 21,6 14,2 5 3 9 5 ENE 0,0
06.08.2020 22:00:00 23,7 16,2 3 1 11 6 N 0,0
06.08.2020 21:00:00 25,6 16,1 3 2 14 7 NNE 0,0
06.08.2020 20:00:00 28,8 11,3 6 3 15 8 ENE -
06.08.2020 19:00:00 30,1 13,9 9 5 19 10 ENE 0,0
06.08.2020 18:00:00 32,3 14,4 3 1 18 10 ESE 0,0
06.08.2020 17:00:00 32,1 13,8 7 4 24 13 ESE 0,0
06.08.2020 16:00:00 32,5 14,6 10 5 25 14 SSE 0,0
06.08.2020 15:00:00 32,2 14,3 11 6 25 14 SSW 0,0
06.08.2020 14:00:00 31,4 13,2 11 6 23 13 SSW -
06.08.2020 13:00:00 30,4 11,9 7 4 20 11 SW 0,0
06.08.2020 12:00:00 29,5 10,6 6 3 20 11 E 0,0
06.08.2020 11:00:00 27,0 13,4 1 1 10 5 WNW 0,0
06.08.2020 10:00:00 24,7 16,1 1 1 10 5 NNW 0,0
06.08.2020 09:00:00 22,0 18,8 3 2 6 4 NE 0,0
06.08.2020 08:00:00 18,4 17,4 1 0 5 3 NE -
06.08.2020 07:00:00 17,1 16,3 1 1 4 2 ENE 0,0
06.08.2020 06:00:00 17,5 16,6 1 1 4 2 NE 0,0
06.08.2020 05:00:00 18,3 17,5 1 1 4 2 NE 0,0
06.08.2020 04:00:00 18,8 18,0 1 1 9 5 ENE 0,0
06.08.2020 03:00:00 18,6 16,6 4 2 7 4 NE 0,0
06.08.2020 02:00:00 20,1 17,9 1 1 5 3 ENE -
06.08.2020 01:00:00 20,9 18,7 4 2 7 4 E 0,0
06.08.2020 00:00:00 21,4 18,8 5 3 8 4 ENE 0,0
05.08.2020 23:00:00 22,4 18,5 2 1 10 5 ENE 0,0
05.08.2020 22:00:00 23,9 18,1 5 3 9 5 NE 0,0
05.08.2020 21:00:00 25,7 17,6 4 2 17 9 SSE 0,0
05.08.2020 20:00:00 27,6 17,1 8 4 23 12 ESE -
05.08.2020 19:00:00 29,1 17,6 13 7 29 16 S 0,0
05.08.2020 18:00:00 30,0 17,8 14 8 32 17 S 0,0
05.08.2020 17:00:00 31,4 17,3 14 8 27 15 S 0,0
05.08.2020 16:00:00 32,2 15,7 11 6 24 13 SSW 0,0
05.08.2020 15:00:00 31,8 14,0 10 5 21 11 S 0,0
05.08.2020 14:00:00 30,8 14,4 3 2 23 13 S -
05.08.2020 13:00:00 29,3 14,7 8 4 24 13 SSW 0,0
05.08.2020 12:00:00 27,9 14,1 7 4 18 10 SW 0,0
05.08.2020 11:00:00 26,4 15,4 8 5 17 9 S 0,0
05.08.2020 10:00:00 23,6 16,6 2 1 6 3 WNW 0,0
05.08.2020 09:00:00 21,7 17,9 1 1 3 2 W 0,0
05.08.2020 08:00:00 18,3 17,0 2 1 6 3 ENE -
05.08.2020 07:00:00 17,5 17,4 1 1 4 2 SSE 0,0
05.08.2020 06:00:00 17,5 16,7 1 1 4 2 S 0,0
05.08.2020 05:00:00 18,9 18,5 2 1 4 2 NE 0,0
05.08.2020 04:00:00 19,0 18,3 3 1 4 2 NE 0,0
05.08.2020 03:00:00 19,5 18,5 3 1 4 2 ENE 0,0
05.08.2020 02:00:00 19,9 17,1 0 0 6 4 N -
05.08.2020 01:00:00 20,6 18,4 4 2 6 4 ENE 0,0
05.08.2020 00:00:00 21,2 18,5 4 2 6 3 ENE 0,0
04.08.2020 23:00:00 22,1 18,7 0 0 9 5 NE 0,0
04.08.2020 22:00:00 22,9 18,6 6 3 14 7 E 0,0
04.08.2020 21:00:00 24,4 18,5 5 3 10 6 E 0,0
04.08.2020 20:00:00 25,2 18,4 7 4 16 9 ESE -
04.08.2020 19:00:00 26,0 18,4 8 4 25 14 SE 0,0
04.08.2020 18:00:00 27,9 18,0 15 8 29 16 SE 0,0
04.08.2020 17:00:00 30,1 17,9 14 8 35 19 S 0,0
04.08.2020 16:00:00 30,3 17,7 17 9 30 16 S 0,0
04.08.2020 15:00:00 30,0 17,5 13 7 28 15 S 0,0
04.08.2020 14:00:00 29,6 17,8 13 7 29 16 S -
04.08.2020 13:00:00 29,0 18,5 12 7 25 13 S 0,0
04.08.2020 12:00:00 27,0 19,3 11 6 20 11 SSW 0,0
04.08.2020 11:00:00 25,2 19,1 9 5 17 9 SSW 0,0
04.08.2020 10:00:00 24,2 19,5 4 2 8 5 SSW 0,0
04.08.2020 09:00:00 23,0 20,0 2 1 6 3 W 0,0
04.08.2020 08:00:00 21,5 20,7 1 0 6 3 N -
04.08.2020 07:00:00 22,0 19,9 1 1 3 1 ENE 0,0
04.08.2020 06:00:00 22,1 19,8 1 0 6 3 ENE 0,0
04.08.2020 05:00:00 22,2 19,9 3 2 6 3 ENE 0,0
04.08.2020 04:00:00 22,6 19,8 1 0 7 4 ENE 0,0
04.08.2020 03:00:00 22,6 19,6 1 1 8 4 WSW 0,0
04.08.2020 02:00:00 22,8 19,6 0 0 11 6 ENE -
04.08.2020 01:00:00 22,7 19,5 4 2 11 6 SW 0,0
04.08.2020 00:00:00 22,7 19,8 6 3 13 7 S 0,0
03.08.2020 23:00:00 23,4 19,8 3 2 16 8 S 0,0
03.08.2020 22:00:00 23,5 19,8 7 4 16 9 SE 0,0
03.08.2020 21:00:00 24,0 19,9 8 5 19 11 SSE 0,0
03.08.2020 20:00:00 25,1 19,7 6 4 24 13 ESE -
03.08.2020 19:00:00 25,8 19,9 14 7 26 14 E 0,0
03.08.2020 18:00:00 26,6 20,5 16 8 28 15 ESE 0,0
03.08.2020 17:00:00 26,0 22,3 14 7 32 18 E 2,6
03.08.2020 16:00:00 31,1 19,1 13 7 38 21 S 0,0
03.08.2020 15:00:00 33,4 14,9 4 2 16 9 E 0,0
03.08.2020 14:00:00 31,8 14,0 6 4 18 10 NNW -
03.08.2020 13:00:00 30,7 14,7 5 3 15 8 NNW 0,0
03.08.2020 12:00:00 30,0 15,7 6 4 13 7 SSW 0,0
03.08.2020 11:00:00 26,8 17,9 4 2 11 6 NNE 0,0
03.08.2020 10:00:00 26,0 19,8 2 1 8 5 N 0,0
03.08.2020 09:00:00 23,4 20,7 2 1 6 3 NNE 0,0
03.08.2020 08:00:00 19,9 19,6 4 2 6 3 ENE -
03.08.2020 07:00:00 19,0 18,2 3 2 6 3 NE 0,0
03.08.2020 06:00:00 19,8 18,6 3 2 10 5 ENE 0,0
03.08.2020 05:00:00 20,4 19,2 6 4 10 6 NE 0,0
03.08.2020 04:00:00 21,6 20,9 3 1 9 5 NNE 0,0
03.08.2020 03:00:00 20,8 18,0 4 2 10 6 NE 0,0
03.08.2020 02:00:00 21,4 17,2 4 2 5 3 ENE -
03.08.2020 01:00:00 22,2 17,8 1 0 5 3 NE 0,0
03.08.2020 00:00:00 23,4 16,9 0 0 5 3 SSE 0,0
02.08.2020 23:00:00 24,5 19,8 4 2 15 8 NE 0,0
02.08.2020 22:00:00 25,6 20,4 9 5 14 8 NE 0,0
02.08.2020 21:00:00 28,2 17,7 4 2 13 7 SSW 0,0
02.08.2020 20:00:00 29,9 17,4 6 3 22 12 SSW -
02.08.2020 19:00:00 31,0 18,0 10 5 29 15 SSW 0,0
02.08.2020 18:00:00 31,6 18,2 15 8 31 17 S 0,0
02.08.2020 17:00:00 32,6 19,1 15 8 34 18 S 0,0
02.08.2020 16:00:00 32,8 18,9 24 13 42 23 S 0,0
02.08.2020 15:00:00 35,8 16,6 18 10 32 17 S 0,0
02.08.2020 14:00:00 38,3 6,1 8 4 21 11 SW -
02.08.2020 13:00:00 36,2 6,4 5 3 20 11 SE 0,0
02.08.2020 12:00:00 33,5 8,9 6 4 16 9 NNW 0,0
02.08.2020 11:00:00 32,1 9,6 7 4 16 9 N 0,0
02.08.2020 10:00:00 30,4 7,0 5 3 16 9 NW 0,0
02.08.2020 09:00:00 28,3 3,2 5 3 10 6 ESE 0,0
02.08.2020 08:00:00 25,7 3,6 1 1 15 8 SE -
02.08.2020 07:00:00 23,1 4,1 6 3 12 7 NE 0,0
02.08.2020 06:00:00 21,9 1,5 6 4 13 7 NE 0,0
02.08.2020 05:00:00 19,8 3,4 5 3 10 5 ENE 0,0
02.08.2020 04:00:00 22,1 3,8 1 1 10 5 NNE 0,0
02.08.2020 03:00:00 21,0 9,3 2 1 9 5 NE 0,0
02.08.2020 02:00:00 21,7 12,2 5 3 8 4 ENE -
02.08.2020 01:00:00 23,1 13,0 4 2 6 3 NE 0,0
02.08.2020 00:00:00 25,2 13,8 2 1 4 2 ENE 0,0
01.08.2020 23:00:00 27,3 14,7 3 1 5 3 NE 0,0
01.08.2020 22:00:00 30,1 14,2 2 1 7 4 ENE 0,0
01.08.2020 21:00:00 33,7 12,1 3 1 14 7 W 0,0
01.08.2020 20:00:00 35,4 11,1 6 4 20 11 S -
01.08.2020 19:00:00 36,7 15,8 9 5 34 19 S 0,0
01.08.2020 18:00:00 37,5 15,3 21 12 39 21 S 0,0
01.08.2020 17:00:00 39,9 6,2 10 6 30 16 NW 0,0
01.08.2020 16:00:00 40,1 6,4 9 5 25 13 WSW 0,0
01.08.2020 15:00:00 40,7 6,8 3 2 23 12 W 0,0
01.08.2020 14:00:00 39,3 6,8 8 5 30 16 WSW -
01.08.2020 13:00:00 37,8 11,0 3 2 14 7 NW 0,0
01.08.2020 12:00:00 35,8 12,7 4 2 10 5 SW 0,0
01.08.2020 11:00:00 31,8 14,4 6 3 11 6 SW 0,0
01.08.2020 10:00:00 29,0 16,6 1 1 6 3 E 0,0
01.08.2020 09:00:00 26,5 17,0 2 1 7 4 W 0,0
01.08.2020 08:00:00 21,5 16,5 1 0 6 4 NE -
01.08.2020 07:00:00 20,4 15,8 1 1 6 3 SW 0,0
01.08.2020 06:00:00 20,2 16,0 4 2 7 4 NE 0,0
01.08.2020 05:00:00 20,9 15,9 1 1 7 4 ENE 0,0
01.08.2020 04:00:00 21,7 16,4 3 2 5 3 ENE 0,0
01.08.2020 03:00:00 22,2 16,5 2 1 4 2 E 0,0
01.08.2020 02:00:00 22,9 16,9 0 0 4 2 S -

tt = temperature
td = dewpoint
ff = wind speed
fx = gusts
dd = wind direction
rr = precipitation

Next stations